Athol, KS

12:04 AM CDT on August 21, 2014 (GMT -0500)
Brewster | Change Station
CLOSE
Current Station
Airport
Location: Holdrege,
Elevation: 2310 ft
Nearby Weather Stations

Elev 2310 ft 40.45 °N, 99.34 °W | Updated 9 minutes ago

Rain
Rain
74 °F
Feels Like 74 °F
N
9
Wind Variable Wind from SSE

Today
High -- | Low -- °F
--% Chance of Precip.
Yesterday
High -- | Low -- °F
Precip. -- in
6:53 AM 8:23 PM
Waning Crescent, 17% visible
Pressure 29.80 in
Visibility 5.0 miles
Clouds Scattered Clouds 2400 ft
Scattered Clouds 3600 ft
Scattered Clouds 4300 ft
Dew Point 62 °F
Humidity 66%
Rainfall 0.04 in
Snow Depth Not available.
UV 0 out of 12
Pollen 11.00 out of 12
Air Quality Not available.
Flu Activity Not available.
METAR KHDE 210455Z AUTO 15008KT 5SM VCTSRA SCT024 SCT036 SCT043 23/17 A2980 RMK AO2 LTG DSNT SE THRU NW P0004 T02340168

More Conditions Fewer Conditions

Pressure 29.80 in
Visibility 5.0 miles
Clouds Scattered Clouds 2400 ft
Scattered Clouds 3600 ft
Scattered Clouds 4300 ft
Dew Point 62 °F
Humidity 66%
Rainfall 0.04 in
Snow Depth Not available.
UV 0 out of 12
Pollen 11.00 out of 12
Air Quality Not available.
Flu Activity Not available.
METAR KHDE 210455Z AUTO 15008KT 5SM VCTSRA SCT024 SCT036 SCT043 23/17 A2980 RMK AO2 LTG DSNT SE THRU NW P0004 T02340168

More Conditions Fewer Conditions

10-Day Weather Forecast

Almanac

Astronomy

Aug. 21, 2014 Rise Set
Actual Time 6:53 AM CDT 8:23 PM CDT
Civil Twilight 6:24 AM CDT 8:51 PM CDT
Nautical Twilight 5:50 AM CDT 9:25 PM CDT
Astronomical Twilight 5:14 AM CDT 10:01 PM CDT
Moon 3:25 AM CDT 5:53 PM CDT
Length of Visible Light 14h 26m
Length of Day
13h 30m
Tomorrow will be 2m 24s shorter.
Waning Crescent, 17% of the Moon is Illuminated
Today
Waning Crescent
Aug 25
New
Sep 2
First Quarter
Sep 8
Full
Sep 15
Last Quarter

Today's Extremes

State Highs State Lows

Community

WunderPhotos

Upload Photos

1,745,857 photos uploaded!

Nearby

Snow Depth

Station Depth Elevation
No new snow has been reported.

Earthquake Activity

City Distance Mag. Time & Date
No recent earthquake activity has been reported nearby.
Minimum magnitude displayed is 2.5.

Coastal Water Temperatures

Place Temperature
No Stations Reporting

Nearby Weather Stations